createdAt,value
2022-09-06T00:00:40.804Z,101514.84
2022-09-06T00:03:15.727Z,101509.28
2022-09-06T00:05:46.832Z,101512.22
2022-09-06T00:12:10.763Z,101504.63
2022-09-06T00:14:45.903Z,101503.41
2022-09-06T00:17:16.609Z,101493.25
2022-09-06T00:19:48.836Z,101499.91
2022-09-06T00:22:21.016Z,101501.78
2022-09-06T00:24:55.673Z,101498.03
2022-09-06T00:27:29.454Z,101501.41
2022-09-06T00:30:04.725Z,101496.22
2022-09-06T00:32:35.041Z,101496.22
2022-09-06T00:35:06.389Z,101502.00
2022-09-06T00:37:36.279Z,101496.44
2022-09-06T00:40:06.869Z,101496.66
2022-09-06T00:42:36.744Z,101493.97
2022-09-06T00:45:13.003Z,101490.25
2022-09-06T00:47:45.722Z,101495.25
2022-09-06T00:50:18.605Z,101491.94
2022-09-06T00:52:51.531Z,101501.88
2022-09-06T00:55:24.139Z,101497.72
2022-09-06T00:57:54.145Z,101498.78
2022-09-06T01:00:26.992Z,101501.88
2022-09-06T01:02:57.323Z,101500.00
2022-09-06T01:05:39.141Z,101504.34
2022-09-06T01:08:18.137Z,101502.28
2022-09-06T01:11:19.634Z,101504.78
2022-09-06T01:13:58.549Z,101511.16
2022-09-06T01:16:38.950Z,101502.47
2022-09-06T01:19:48.502Z,101498.53
2022-09-06T01:22:35.977Z,101498.50
2022-09-06T01:25:28.193Z,101492.53
2022-09-06T01:28:38.244Z,101495.59
2022-09-06T01:31:22.558Z,101498.13
2022-09-06T01:34:01.592Z,101495.63
2022-09-06T01:36:45.798Z,101494.16
2022-09-06T01:39:27.981Z,101491.28
2022-09-06T01:41:59.255Z,101487.56
2022-09-06T01:44:33.268Z,101481.97
2022-09-06T01:47:12.783Z,101476.81
2022-09-06T01:49:54.771Z,101478.41
2022-09-06T01:52:32.743Z,101488.56
2022-09-06T01:55:18.502Z,101485.03
2022-09-06T01:58:05.586Z,101486.66
2022-09-06T02:00:45.035Z,101481.69
2022-09-06T02:03:25.604Z,101486.41
2022-09-06T02:06:00.960Z,101473.63
2022-09-06T02:08:36.713Z,101479.63
2022-09-06T02:11:10.388Z,101482.94
2022-09-06T02:13:43.222Z,101475.50
2022-09-06T02:16:21.021Z,101463.56
2022-09-06T02:18:57.247Z,101467.47
2022-09-06T02:21:32.963Z,101465.81
2022-09-06T02:24:08.235Z,101469.28
2022-09-06T02:26:41.541Z,101467.47
2022-09-06T02:29:11.877Z,101469.50
2022-09-06T02:31:48.200Z,101469.22
2022-09-06T02:34:21.067Z,101469.66
2022-09-06T02:36:51.622Z,101468.88
2022-09-06T02:39:21.511Z,101473.59
2022-09-06T02:41:51.646Z,101477.94
2022-09-06T02:44:21.971Z,101472.16
2022-09-06T02:46:57.142Z,101468.25
2022-09-06T02:49:28.332Z,101456.63
2022-09-06T02:51:58.638Z,101462.88
2022-09-06T02:54:28.889Z,101465.28
2022-09-06T02:56:58.731Z,101472.28
2022-09-06T02:59:28.548Z,101465.06
2022-09-06T03:02:01.599Z,101459.47
2022-09-06T03:04:31.749Z,101461.53
2022-09-06T03:07:02.133Z,101464.63
2022-09-06T03:09:32.106Z,101468.91
2022-09-06T03:12:02.074Z,101466.25
2022-09-06T03:14:32.429Z,101465.81
2022-09-06T03:17:05.188Z,101470.78
2022-09-06T03:19:35.375Z,101462.53
2022-09-06T03:22:05.237Z,101464.38
2022-09-06T03:24:35.045Z,101467.69
2022-09-06T03:27:05.147Z,101465.19
2022-09-06T03:29:35.531Z,101461.91
2022-09-06T03:32:09.382Z,101464.34
2022-09-06T03:34:40.896Z,101462.88
2022-09-06T03:37:11.485Z,101451.00
2022-09-06T03:39:43.019Z,101451.78
2022-09-06T03:42:13.605Z,101447.03
2022-09-06T03:44:44.378Z,101450.72
2022-09-06T03:47:19.550Z,101450.50
2022-09-06T03:49:51.047Z,101448.84
2022-09-06T03:52:21.081Z,101442.84
2022-09-06T03:54:51.951Z,101456.25
2022-09-06T03:57:22.448Z,101458.91
2022-09-06T03:59:56.687Z,101455.84
2022-09-06T04:02:29.398Z,101459.06
2022-09-06T04:04:59.587Z,101463.63
2022-09-06T04:07:29.490Z,101461.75
2022-09-06T04:09:59.302Z,101449.59
2022-09-06T04:12:29.541Z,101441.34
2022-09-06T04:14:59.592Z,101440.09
2022-09-06T04:17:32.156Z,101450.19
2022-09-06T04:20:02.748Z,101443.91
2022-09-06T04:22:32.770Z,101439.41
2022-09-06T04:25:03.227Z,101441.59
2022-09-06T04:27:33.121Z,101434.84
2022-09-06T04:30:03.026Z,101440.59
2022-09-06T04:32:35.908Z,101442.06
2022-09-06T04:35:06.314Z,101439.13
2022-09-06T04:37:36.676Z,101442.22
2022-09-06T04:40:07.533Z,101439.47
2022-09-06T04:42:38.249Z,101436.75
2022-09-06T04:45:09.490Z,101433.44
2022-09-06T04:47:42.374Z,101430.75
2022-09-06T04:50:12.533Z,101432.19
2022-09-06T04:52:42.744Z,101432.41
2022-09-06T04:55:12.891Z,101430.75
2022-09-06T04:57:46.592Z,101436.88
2022-09-06T05:00:18.643Z,101426.16
2022-09-06T05:02:51.427Z,101428.84
2022-09-06T05:05:22.362Z,101427.47
2022-09-06T05:07:54.746Z,101431.09
2022-09-06T05:10:25.673Z,101421.66
2022-09-06T05:12:57.202Z,101421.81
2022-09-06T05:15:27.719Z,101416.75
2022-09-06T05:18:07.757Z,101416.84
2022-09-06T05:20:37.684Z,101414.19
2022-09-06T05:23:07.939Z,101420.78
2022-09-06T05:25:37.799Z,101420.53
2022-09-06T05:28:07.648Z,101423.16
2022-09-06T05:30:37.992Z,101426.31
2022-09-06T05:33:10.640Z,101418.63
2022-09-06T05:35:41.158Z,101426.72
2022-09-06T05:38:10.999Z,101422.22
2022-09-06T05:40:41.198Z,101420.63
2022-09-06T05:43:11.003Z,101424.66
2022-09-06T05:45:44.027Z,101425.22
2022-09-06T05:48:16.628Z,101428.50
2022-09-06T05:50:46.758Z,101433.63
2022-09-06T05:53:16.936Z,101429.56
2022-09-06T05:55:47.010Z,101426.53
2022-09-06T05:58:16.824Z,101427.50
2022-09-06T06:00:46.841Z,101428.50
2022-09-06T06:03:19.627Z,101426.63
2022-09-06T06:05:49.705Z,101416.28
2022-09-06T06:08:22.242Z,101412.97
2022-09-06T06:10:52.070Z,101409.97
2022-09-06T06:13:22.236Z,101406.13
2022-09-06T06:15:52.433Z,101396.06
2022-09-06T06:18:25.037Z,101398.53
2022-09-06T06:20:55.572Z,101405.13
2022-09-06T06:23:25.993Z,101401.59
2022-09-06T06:25:56.911Z,101395.03
2022-09-06T06:28:27.074Z,101412.75
2022-09-06T06:30:57.286Z,101404.56
2022-09-06T06:33:29.884Z,101412.19
2022-09-06T06:36:01.869Z,101419.56
2022-09-06T06:38:35.813Z,101418.75
2022-09-06T06:41:07.371Z,101415.19
2022-09-06T06:43:38.970Z,101410.94
2022-09-06T06:46:11.056Z,101411.41
2022-09-06T06:48:44.697Z,101402.13
2022-09-06T06:51:16.822Z,101403.59
2022-09-06T06:53:47.575Z,101392.03
2022-09-06T06:56:19.539Z,101395.03
2022-09-06T06:58:51.086Z,101388.47
2022-09-06T07:01:22.952Z,101400.44
2022-09-06T07:03:55.946Z,101391.41
2022-09-06T07:09:18.305Z,101388.47
2022-09-06T07:11:49.976Z,101386.81
2022-09-06T07:14:20.465Z,101391.44
2022-09-06T07:16:51.853Z,101388.75
2022-09-06T07:22:14.366Z,101406.19
2022-09-06T07:27:49.349Z,101404.34
2022-09-06T07:30:20.943Z,101405.84
2022-09-06T07:32:50.776Z,101406.47
2022-09-06T07:35:25.046Z,101403.19
2022-09-06T07:37:56.129Z,101409.84
2022-09-06T07:40:27.356Z,101409.25
2022-09-06T07:42:59.419Z,101404.13
2022-09-06T07:45:29.851Z,101406.19
2022-09-06T07:48:01.402Z,101406.81
2022-09-06T07:50:51.197Z,101396.09
2022-09-06T07:53:30.438Z,101395.28
2022-09-06T07:56:02.796Z,101390.56
2022-09-06T07:58:33.610Z,101390.16
2022-09-06T08:01:21.678Z,101398.78
2022-09-06T08:03:51.513Z,101397.78
2022-09-06T08:06:25.257Z,101390.94
2022-09-06T08:11:28.732Z,101396.94
2022-09-06T08:14:00.256Z,101394.69
2022-09-06T08:16:32.438Z,101393.44
2022-09-06T08:19:04.015Z,101394.69
2022-09-06T08:21:37.713Z,101400.84
2022-09-06T08:24:11.345Z,101406.66
2022-09-06T08:26:43.220Z,101418.19
2022-09-06T08:29:14.523Z,101408.25
2022-09-06T08:31:47.126Z,101404.75
2022-09-06T08:34:17.834Z,101406.22
2022-09-06T08:36:51.161Z,101405.59
2022-09-06T08:39:21.544Z,101413.19
2022-09-06T08:42:00.799Z,101404.94
2022-09-06T08:44:56.925Z,101397.25
2022-09-06T08:47:31.115Z,101393.06
2022-09-06T08:50:05.480Z,101386.22
2022-09-06T08:53:20.478Z,101382.84
2022-09-06T08:55:57.785Z,101382.41
2022-09-06T08:58:39.685Z,101379.06
2022-09-06T09:01:15.451Z,101383.13
2022-09-06T09:03:46.578Z,101381.38
2022-09-06T09:06:16.387Z,101383.44
2022-09-06T09:09:04.355Z,101380.03
2022-09-06T09:11:36.107Z,101369.38
2022-09-06T09:14:08.702Z,101373.00
2022-09-06T09:16:38.789Z,101370.22
2022-09-06T09:19:09.504Z,101370.63
2022-09-06T09:21:40.853Z,101359.69
2022-09-06T09:24:15.591Z,101360.44
2022-09-06T09:26:52.181Z,101355.81
2022-09-06T09:29:27.422Z,101354.03
2022-09-06T09:31:59.291Z,101352.69
2022-09-06T09:34:35.817Z,101356.97
2022-09-06T09:40:15.711Z,101359.50
2022-09-06T09:42:50.751Z,101348.44
2022-09-06T09:45:30.171Z,101343.72
2022-09-06T09:48:22.283Z,101329.22
2022-09-06T09:50:59.712Z,101324.97
2022-09-06T09:53:38.531Z,101319.75
2022-09-06T09:56:31.797Z,101322.22
2022-09-06T09:59:10.515Z,101319.84
2022-09-06T10:01:43.728Z,101320.94
2022-09-06T10:07:30.114Z,101312.34
2022-09-06T10:10:13.801Z,101311.63
2022-09-06T10:12:55.519Z,101312.81
2022-09-06T10:15:36.382Z,101308.44
2022-09-06T10:18:07.039Z,101313.78
2022-09-06T10:20:43.753Z,101311.31
2022-09-06T10:26:17.802Z,101314.63
2022-09-06T10:28:55.800Z,101306.84
2022-09-06T10:32:34.488Z,101305.78
2022-09-06T10:39:17.992Z,101292.72
2022-09-06T10:42:35.969Z,101295.16
2022-09-06T10:50:17.276Z,101279.75
2022-09-06T10:53:58.759Z,101278.38
2022-09-06T10:57:08.222Z,101282.13
2022-09-06T11:04:12.521Z,101278.81
2022-09-06T11:11:05.129Z,101283.00
2022-09-06T11:13:49.832Z,101280.78
2022-09-06T11:16:32.618Z,101271.28
2022-09-06T11:19:49.326Z,101271.22
2022-09-06T11:23:00.537Z,101267.88
2022-09-06T11:26:04.831Z,101259.94
2022-09-06T11:28:41.097Z,101258.09
2022-09-06T11:34:24.770Z,101257.72
2022-09-06T11:37:00.507Z,101266.50
2022-09-06T11:42:44.361Z,101249.88
2022-09-06T11:45:21.724Z,101247.28
2022-09-06T11:47:53.101Z,101251.13
2022-09-06T11:51:03.018Z,101251.38
2022-09-06T11:53:36.452Z,101252.50
2022-09-06T11:56:31.827Z,101252.41
2022-09-06T11:59:06.676Z,101250.13
2022-09-06T12:01:59.151Z,101247.88
2022-09-06T12:05:13.636Z,101245.69
2022-09-06T12:08:14.081Z,101255.75
2022-09-06T12:11:06.709Z,101251.31
2022-09-06T12:13:52.765Z,101242.50
2022-09-06T12:16:23.389Z,101250.91
2022-09-06T12:19:04.365Z,101232.50
2022-09-06T12:21:41.657Z,101241.28
2022-09-06T12:24:32.700Z,101240.25
2022-09-06T12:27:16.741Z,101234.88
2022-09-06T12:29:58.134Z,101229.69
2022-09-06T12:32:46.380Z,101226.50
2022-09-06T12:39:13.834Z,101226.56
2022-09-06T12:41:48.357Z,101224.88
2022-09-06T12:44:39.719Z,101213.16
2022-09-06T12:47:36.595Z,101212.91
2022-09-06T12:50:36.287Z,101210.47
2022-09-06T12:53:23.596Z,101205.97
2022-09-06T12:56:07.031Z,101208.06
2022-09-06T12:58:38.820Z,101208.22
2022-09-06T13:01:19.302Z,101200.88
2022-09-06T13:04:03.006Z,101197.09
2022-09-06T13:06:38.891Z,101196.00
2022-09-06T13:09:15.650Z,101197.25
2022-09-06T13:11:49.159Z,101194.00
2022-09-06T13:14:22.618Z,101194.03
2022-09-06T13:16:57.828Z,101173.41
2022-09-06T13:19:36.724Z,101182.06
2022-09-06T13:22:11.581Z,101177.97
2022-09-06T13:24:49.224Z,101183.28
2022-09-06T13:27:26.496Z,101174.59
2022-09-06T13:34:36.855Z,101172.69
2022-09-06T13:37:10.833Z,101168.47
2022-09-06T13:39:44.040Z,101172.59
2022-09-06T13:42:42.180Z,101171.03
2022-09-06T13:45:37.651Z,101170.06
2022-09-06T13:48:38.570Z,101175.41
2022-09-06T13:51:05.857Z,101167.97
2022-09-06T13:53:36.565Z,101176.56
2022-09-06T13:56:09.086Z,101178.81
2022-09-06T13:58:39.804Z,101178.22
2022-09-06T14:01:14.983Z,101175.16
2022-09-06T14:04:00.492Z,101172.66
2022-09-06T14:11:13.470Z,101175.09
2022-09-06T14:14:16.723Z,101176.50
2022-09-06T14:21:18.540Z,101172.06
2022-09-06T14:24:45.418Z,101164.66
2022-09-06T14:28:08.791Z,101167.56
2022-09-06T14:30:56.330Z,101162.88
2022-09-06T14:33:29.300Z,101160.72
2022-09-06T14:36:01.174Z,101153.75
2022-09-06T14:38:30.999Z,101154.31
2022-09-06T14:41:09.069Z,101147.03
2022-09-06T14:43:40.063Z,101148.81
2022-09-06T14:46:13.832Z,101145.09
2022-09-06T14:48:44.873Z,101144.97
2022-09-06T14:51:27.301Z,101141.59
2022-09-06T14:54:07.432Z,101144.44
2022-09-06T15:00:19.867Z,101145.97
2022-09-06T15:02:51.983Z,101135.38
2022-09-06T15:05:25.293Z,101144.94
2022-09-06T15:07:55.758Z,101146.09
2022-09-06T15:10:27.699Z,101130.13
2022-09-06T15:13:01.366Z,101138.22
2022-09-06T15:15:52.895Z,101130.81
2022-09-06T15:18:24.514Z,101132.47
2022-09-06T15:20:54.727Z,101121.28
2022-09-06T15:23:27.106Z,101124.84
2022-09-06T15:26:04.236Z,101121.63
2022-09-06T15:37:19.009Z,101109.03
2022-09-06T15:40:17.609Z,101115.00
2022-09-06T15:43:42.702Z,101108.66
2022-09-06T16:16:24.808Z,101085.75
2022-09-06T16:19:01.694Z,101086.00
2022-09-06T16:21:41.427Z,101082.16
2022-09-06T16:24:15.966Z,101085.66
2022-09-06T16:26:48.576Z,101083.00
2022-09-06T16:29:20.846Z,101089.19
2022-09-06T16:32:00.072Z,101083.31
2022-09-06T16:36:48.160Z,101083.94
2022-09-06T16:39:15.498Z,101087.28
2022-09-06T16:41:53.852Z,101090.19
2022-09-06T16:44:25.354Z,101090.69
2022-09-06T16:47:01.169Z,101093.56
2022-09-06T16:49:48.026Z,101093.25
2022-09-06T16:52:32.134Z,101099.47
2022-09-06T16:55:11.346Z,101096.88
2022-09-06T16:57:48.215Z,101081.53
2022-09-06T17:00:48.618Z,101082.94
2022-09-06T17:03:22.324Z,101075.09
2022-09-06T17:05:57.838Z,101079.63
2022-09-06T17:08:56.130Z,101069.34
2022-09-06T17:11:28.753Z,101071.34
2022-09-06T17:14:29.979Z,101075.19
2022-09-06T18:00:41.959Z,101088.22
2022-09-06T18:03:12.885Z,101089.59
2022-09-06T18:05:43.850Z,101090.81
2022-09-06T18:08:15.869Z,101089.28
2022-09-06T18:10:50.665Z,101089.22
2022-09-06T18:13:44.021Z,101087.03
2022-09-06T18:23:42.311Z,101099.91
2022-09-06T18:29:56.253Z,101098.28
2022-09-06T18:32:27.304Z,101094.94
2022-09-06T18:35:30.078Z,101101.38
2022-09-06T18:41:50.856Z,101100.59
2022-09-06T18:44:21.691Z,101091.09
2022-09-06T18:46:53.201Z,101091.59
2022-09-06T18:49:23.568Z,101086.66
2022-09-06T18:51:53.802Z,101098.50
2022-09-06T18:54:24.733Z,101098.13
2022-09-06T19:05:25.037Z,101084.25
2022-09-06T19:08:29.920Z,101087.28
2022-09-06T19:11:06.779Z,101090.53
2022-09-06T19:30:45.335Z,101096.88
2022-09-06T19:33:18.613Z,101103.63
2022-09-06T19:36:10.460Z,101101.28
2022-09-06T19:39:06.134Z,101101.25
2022-09-06T19:41:48.522Z,101091.19
2022-09-06T19:44:30.095Z,101093.06
2022-09-06T19:51:11.661Z,101081.56
2022-09-06T19:53:42.649Z,101075.25
2022-09-06T19:56:13.634Z,101072.81
2022-09-06T19:58:57.269Z,101074.44
2022-09-06T20:01:53.592Z,101074.34
2022-09-06T20:04:28.801Z,101069.53
2022-09-06T20:07:09.016Z,101072.38
2022-09-06T20:09:40.193Z,101080.00
2022-09-06T20:12:12.167Z,101076.94
2022-09-06T20:14:42.335Z,101079.78
2022-09-06T20:17:32.762Z,101080.56
2022-09-06T20:20:02.375Z,101076.59
2022-09-06T20:22:34.972Z,101078.34
2022-09-06T20:25:05.413Z,101076.25
2022-09-06T20:27:35.278Z,101069.94
2022-09-06T20:30:05.229Z,101076.50
2022-09-06T20:32:35.619Z,101067.69
2022-09-06T20:35:05.546Z,101065.81
2022-09-06T20:37:38.896Z,101069.00
2022-09-06T20:40:10.998Z,101072.84
2022-09-06T20:42:42.367Z,101067.09
2022-09-06T20:45:13.299Z,101063.00
2022-09-06T20:47:43.209Z,101065.59
2022-09-06T20:50:13.544Z,101057.03
2022-09-06T20:52:45.988Z,101057.75
2022-09-06T20:55:16.276Z,101055.16
2022-09-06T20:57:46.237Z,101048.13
2022-09-06T21:00:17.276Z,101032.41
2022-09-06T21:02:47.536Z,101032.56
2022-09-06T21:05:17.648Z,101034.41
2022-09-06T21:07:50.107Z,101031.25
2022-09-06T21:10:20.427Z,101033.94
2022-09-06T21:12:50.337Z,101025.16
2022-09-06T21:15:20.218Z,101033.47
2022-09-06T21:17:50.475Z,101019.28
2022-09-06T21:20:21.098Z,101026.41
2022-09-06T21:22:53.943Z,101028.63
2022-09-06T21:25:23.918Z,101024.88
2022-09-06T21:27:55.855Z,101034.47
2022-09-06T21:30:25.921Z,101024.28
2022-09-06T21:32:57.911Z,101022.53
2022-09-06T21:35:28.162Z,101025.22
2022-09-06T21:38:01.208Z,101026.25
2022-09-06T21:40:31.130Z,101025.00
2022-09-06T21:43:05.420Z,101013.84
2022-09-06T21:45:40.311Z,101017.00
2022-09-06T21:48:10.695Z,101009.41
2022-09-06T21:50:40.591Z,101012.41
2022-09-06T21:53:13.117Z,101013.47
2022-09-06T21:55:43.785Z,101003.31
2022-09-06T21:58:15.405Z,101002.25
2022-09-06T22:00:46.750Z,101002.69
2022-09-06T22:03:16.695Z,101001.84
2022-09-06T22:05:47.395Z,100991.63
2022-09-06T22:08:22.421Z,100990.91
2022-09-06T22:10:53.471Z,100981.50
2022-09-06T22:13:23.962Z,100983.75
2022-09-06T22:15:55.304Z,100969.31
2022-09-06T22:18:25.726Z,100975.09
2022-09-06T22:21:02.825Z,100970.38
2022-09-06T22:23:35.707Z,100968.59
2022-09-06T22:26:07.624Z,100969.50
2022-09-06T22:28:52.878Z,100973.00
2022-09-06T22:31:28.557Z,100972.88
2022-09-06T22:34:17.893Z,100971.44
2022-09-06T22:36:53.580Z,100974.66
2022-09-06T22:39:26.817Z,100974.44
2022-09-06T22:42:00.806Z,100971.75
2022-09-06T22:44:30.930Z,100962.97
2022-09-06T22:47:01.148Z,100961.25
2022-09-06T22:49:31.253Z,100956.09
2022-09-06T22:52:01.124Z,100946.81
2022-09-06T22:54:33.956Z,100945.44
2022-09-06T22:57:04.666Z,100944.84
2022-09-06T22:59:37.959Z,100947.03
2022-09-06T23:02:08.437Z,100945.75
2022-09-06T23:04:39.347Z,100944.78
2022-09-06T23:07:09.613Z,100943.63
2022-09-06T23:09:43.716Z,100943.19
2022-09-06T23:12:14.155Z,100939.81
2022-09-06T23:14:44.870Z,100938.91
2022-09-06T23:17:15.978Z,100939.50
2022-09-06T23:19:47.228Z,100937.88
2022-09-06T23:22:19.207Z,100944.91
2022-09-06T23:24:53.542Z,100943.63
2022-09-06T23:27:24.442Z,100939.31
2022-09-06T23:29:55.823Z,100936.41
2022-09-06T23:32:34.123Z,100935.97
2022-09-06T23:35:06.187Z,100942.38
2022-09-06T23:37:38.036Z,100942.72
2022-09-06T23:40:13.622Z,100944.38
2022-09-06T23:42:44.483Z,100952.09
2022-09-06T23:45:15.759Z,100948.22
2022-09-06T23:47:46.497Z,100942.84
2022-09-06T23:50:17.615Z,100950.06
2022-09-06T23:52:48.699Z,100947.47
2022-09-06T23:55:22.594Z,100948.63
2022-09-06T23:57:54.364Z,100954.13
